createdAt,value
2019-05-10T00:00:10.868Z,2.50
2019-05-10T00:02:58.841Z,2.90
2019-05-10T00:05:46.794Z,2.47
2019-05-10T00:08:34.836Z,2.53
2019-05-10T00:11:32.989Z,2.40
2019-05-10T00:14:27.173Z,3.33
2019-05-10T00:17:10.587Z,3.00
2019-05-10T00:19:40.867Z,3.23
2019-05-10T00:22:14.023Z,3.03
2019-05-10T00:25:02.437Z,3.20
2019-05-10T00:27:18.352Z,3.00
2019-05-10T00:29:48.511Z,2.77
2019-05-10T00:32:18.695Z,2.67
2019-05-10T00:34:48.931Z,2.87
2019-05-10T00:37:19.581Z,2.57
2019-05-10T00:39:49.821Z,2.57
2019-05-10T00:42:19.692Z,2.40
2019-05-10T00:44:49.892Z,2.27
2019-05-10T00:47:19.869Z,2.73
2019-05-10T00:49:50.514Z,3.13
2019-05-10T00:52:20.524Z,2.80
2019-05-10T00:54:51.046Z,2.83
2019-05-10T00:57:21.116Z,3.23
2019-05-10T00:59:53.639Z,2.60
2019-05-10T01:02:23.733Z,3.20
2019-05-10T01:04:54.972Z,2.83
2019-05-10T01:07:25.591Z,2.70
2019-05-10T01:09:56.115Z,2.80
2019-05-10T01:12:25.988Z,3.03
2019-05-10T01:14:56.113Z,3.17
2019-05-10T01:17:26.677Z,2.77
2019-05-10T01:19:57.812Z,3.00
2019-05-10T01:22:27.626Z,2.77
2019-05-10T01:24:57.521Z,4.03
2019-05-10T01:27:27.589Z,3.50
2019-05-10T01:29:57.520Z,3.33
2019-05-10T01:32:27.496Z,3.90
2019-05-10T01:34:58.327Z,2.90
2019-05-10T01:37:28.134Z,2.93
2019-05-10T01:39:58.699Z,2.90
2019-05-10T01:42:28.805Z,3.20
2019-05-10T01:45:00.842Z,3.10
2019-05-10T01:47:31.215Z,3.43
2019-05-10T01:50:01.857Z,3.30
2019-05-10T01:52:31.944Z,2.87
2019-05-10T01:55:01.911Z,3.13
2019-05-10T01:57:31.986Z,3.30
2019-05-10T02:00:02.346Z,3.33
2019-05-10T02:02:32.848Z,3.40
2019-05-10T02:05:02.934Z,4.20
2019-05-10T02:07:32.666Z,3.27
2019-05-10T02:10:03.075Z,2.93
2019-05-10T02:12:33.370Z,3.27
2019-05-10T02:15:03.295Z,3.73
2019-05-10T02:17:34.485Z,3.50
2019-05-10T02:20:13.278Z,4.23
2019-05-10T02:22:43.776Z,3.57
2019-05-10T02:25:13.742Z,3.27
2019-05-10T02:27:55.307Z,3.40
2019-05-10T02:30:25.411Z,3.57
2019-05-10T02:32:55.571Z,3.63
2019-05-10T02:35:26.224Z,5.07
2019-05-10T02:37:56.218Z,4.80
2019-05-10T02:40:26.916Z,4.47
2019-05-10T02:42:57.772Z,5.13
2019-05-10T02:45:28.181Z,4.80
2019-05-10T02:47:58.335Z,4.93
2019-05-10T02:50:28.368Z,5.83
2019-05-10T02:52:58.715Z,3.53
2019-05-10T02:55:28.981Z,5.23
2019-05-10T02:57:59.069Z,6.40
2019-05-10T03:00:30.137Z,5.27
2019-05-10T03:03:01.456Z,4.80
2019-05-10T03:05:34.012Z,5.23
2019-05-10T03:08:04.180Z,4.60
2019-05-10T03:10:35.231Z,4.77
2019-05-10T03:13:05.307Z,4.97
2019-05-10T03:15:38.891Z,5.20
2019-05-10T03:18:08.833Z,5.03
2019-05-10T03:20:42.394Z,5.33
2019-05-10T03:23:13.030Z,4.50
2019-05-10T03:25:43.014Z,4.67
2019-05-10T03:28:14.571Z,5.30
2019-05-10T03:30:44.918Z,4.73
2019-05-10T03:33:15.865Z,4.40
2019-05-10T03:35:46.264Z,4.67
2019-05-10T03:38:16.672Z,5.33
2019-05-10T03:40:47.420Z,4.20
2019-05-10T03:43:17.928Z,4.83
2019-05-10T03:45:48.934Z,4.73
2019-05-10T03:48:20.512Z,4.80
2019-05-10T03:50:51.765Z,3.63
2019-05-10T03:53:21.953Z,3.60
2019-05-10T03:55:53.092Z,3.80
2019-05-10T03:58:23.407Z,3.70
2019-05-10T04:00:53.787Z,3.37
2019-05-10T04:03:23.859Z,3.70
2019-05-10T04:05:54.386Z,3.70
2019-05-10T04:08:24.648Z,3.00
2019-05-10T04:10:54.957Z,2.60
2019-05-10T04:13:25.253Z,2.80
2019-05-10T04:15:56.294Z,2.20
2019-05-10T04:18:26.575Z,2.40
2019-05-10T04:20:56.943Z,2.57
2019-05-10T04:23:27.818Z,2.37
2019-05-10T04:25:57.806Z,2.43
2019-05-10T04:28:28.017Z,2.30
2019-05-10T04:30:58.045Z,2.10
2019-05-10T04:33:28.472Z,2.20
2019-05-10T04:35:58.797Z,2.30
2019-05-10T04:38:29.831Z,1.90
2019-05-10T04:41:00.258Z,2.10
2019-05-10T04:43:30.201Z,2.20
2019-05-10T04:46:00.636Z,2.80
2019-05-10T04:48:30.587Z,2.40
2019-05-10T04:51:01.295Z,2.60
2019-05-10T04:53:32.112Z,2.80
2019-05-10T04:56:03.541Z,2.60
2019-05-10T04:58:34.699Z,3.10
2019-05-10T05:01:05.235Z,2.17
2019-05-10T05:03:35.609Z,2.50
2019-05-10T05:06:05.614Z,2.20
2019-05-10T05:08:35.841Z,1.80
2019-05-10T05:11:06.519Z,2.30
2019-05-10T05:13:36.313Z,2.13
2019-05-10T05:16:06.307Z,1.80
2019-05-10T05:18:36.978Z,2.00
2019-05-10T05:21:09.125Z,2.30
2019-05-10T05:23:40.398Z,2.50
2019-05-10T05:26:11.017Z,1.87
2019-05-10T05:28:41.348Z,2.00
2019-05-10T05:31:14.315Z,2.60
2019-05-10T05:33:44.628Z,2.00
2019-05-10T05:36:14.738Z,2.07
2019-05-10T05:38:47.153Z,2.37
2019-05-10T05:41:17.447Z,2.03
2019-05-10T05:43:48.203Z,1.70
2019-05-10T05:46:18.475Z,2.17
2019-05-10T05:48:51.337Z,2.20
2019-05-10T05:51:20.357Z,2.00
2019-05-10T05:53:50.707Z,2.00
2019-05-10T05:56:20.667Z,1.97
2019-05-10T05:58:50.381Z,2.03
2019-05-10T06:01:26.283Z,1.90
2019-05-10T06:03:51.920Z,1.87
2019-05-10T06:06:23.492Z,1.90
2019-05-10T06:08:54.529Z,2.27
2019-05-10T06:11:29.651Z,2.60
2019-05-10T06:14:03.819Z,2.40
2019-05-10T06:16:29.792Z,2.30
2019-05-10T06:19:00.666Z,2.97
2019-05-10T06:21:31.023Z,2.87
2019-05-10T06:24:07.536Z,8.17
2019-05-10T06:26:37.851Z,7.37
2019-05-10T06:29:18.129Z,7.50
2019-05-10T06:31:47.681Z,7.07
2019-05-10T06:34:18.266Z,2.53
2019-05-10T06:36:47.894Z,3.20
2019-05-10T06:39:17.578Z,6.43
2019-05-10T06:41:49.945Z,5.10
2019-05-10T06:44:19.336Z,5.37
2019-05-10T06:46:50.080Z,4.10
2019-05-10T06:49:21.021Z,6.20
2019-05-10T06:51:51.706Z,6.13
2019-05-10T06:54:21.934Z,3.70
2019-05-10T06:56:51.658Z,4.13
2019-05-10T06:59:24.997Z,5.40
2019-05-10T07:01:54.220Z,5.87
2019-05-10T07:04:24.406Z,6.10
2019-05-10T07:06:55.161Z,6.57
2019-05-10T07:09:25.273Z,5.63
2019-05-10T07:11:55.580Z,4.90
2019-05-10T07:14:27.359Z,5.57
2019-05-10T07:17:02.505Z,2.23
2019-05-10T07:19:35.017Z,4.50
2019-05-10T07:22:03.244Z,3.63
2019-05-10T07:24:33.539Z,3.87
2019-05-10T07:27:05.816Z,3.13
2019-05-10T07:29:41.763Z,2.50
2019-05-10T07:32:08.469Z,3.23
2019-05-10T07:34:38.979Z,2.80
2019-05-10T07:37:09.356Z,2.60
2019-05-10T07:39:39.336Z,2.73
2019-05-10T07:42:09.345Z,2.00
2019-05-10T07:44:41.392Z,1.70
2019-05-10T07:47:10.954Z,2.90
2019-05-10T07:49:41.420Z,1.70
2019-05-10T07:52:13.522Z,1.53
2019-05-10T07:54:47.515Z,3.10
2019-05-10T07:57:18.687Z,2.23
2019-05-10T07:59:51.038Z,3.20
2019-05-10T08:02:20.406Z,1.80
2019-05-10T08:04:53.536Z,2.17
2019-05-10T08:07:22.548Z,2.37
2019-05-10T08:09:52.826Z,1.20
2019-05-10T08:12:22.624Z,2.33
2019-05-10T08:14:53.728Z,2.00
2019-05-10T08:17:23.655Z,1.90
2019-05-10T08:19:53.951Z,1.20
2019-05-10T08:22:24.731Z,2.50
2019-05-10T08:24:56.418Z,1.50
2019-05-10T08:27:26.644Z,1.90
2019-05-10T08:30:18.041Z,2.20
2019-05-10T08:32:32.247Z,1.40
2019-05-10T08:35:05.711Z,1.90
2019-05-10T08:37:38.026Z,1.50
2019-05-10T08:40:08.039Z,1.53
2019-05-10T08:42:45.238Z,1.33
2019-05-10T08:45:09.793Z,0.70
2019-05-10T08:47:39.646Z,1.70
2019-05-10T08:50:22.304Z,2.13
2019-05-10T08:52:43.497Z,1.93
2019-05-10T08:55:13.523Z,2.40
2019-05-10T08:57:49.194Z,2.10
2019-05-10T09:00:15.827Z,2.47
2019-05-10T09:02:46.262Z,2.13
2019-05-10T09:05:22.576Z,1.30
2019-05-10T09:07:48.520Z,2.87
2019-05-10T09:10:18.554Z,2.47
2019-05-10T09:12:57.947Z,2.07
2019-05-10T09:15:23.187Z,2.13
2019-05-10T09:17:53.500Z,1.80
2019-05-10T09:20:26.504Z,2.23
2019-05-10T09:22:55.786Z,2.80
2019-05-10T09:25:30.874Z,0.93
2019-05-10T09:28:02.305Z,2.30
2019-05-10T09:30:35.442Z,1.97
2019-05-10T09:33:10.329Z,1.27
2019-05-10T09:35:38.967Z,1.93
2019-05-10T09:38:12.247Z,1.77
2019-05-10T09:40:50.541Z,2.40
2019-05-10T09:43:15.026Z,1.80
2019-05-10T09:45:44.976Z,2.20
2019-05-10T09:48:14.628Z,1.37
2019-05-10T09:50:47.032Z,1.30
2019-05-10T09:53:25.496Z,1.90
2019-05-10T09:55:55.746Z,1.37
2019-05-10T09:58:22.819Z,1.80
2019-05-10T10:00:53.082Z,1.30
2019-05-10T10:03:23.353Z,1.10
2019-05-10T10:05:55.295Z,1.77
2019-05-10T10:08:25.242Z,1.60
2019-05-10T10:11:01.248Z,1.23
2019-05-10T10:13:39.440Z,1.70
2019-05-10T10:16:04.028Z,1.53
2019-05-10T10:18:31.863Z,1.43
2019-05-10T10:21:02.347Z,1.20
2019-05-10T10:23:34.861Z,2.03
2019-05-10T10:26:04.373Z,1.80
2019-05-10T10:28:37.318Z,1.70
2019-05-10T10:31:08.476Z,1.77
2019-05-10T10:33:42.632Z,1.43
2019-05-10T10:36:10.932Z,1.10
2019-05-10T10:38:49.473Z,2.00
2019-05-10T10:41:26.084Z,0.80
2019-05-10T10:43:51.784Z,1.33
2019-05-10T10:46:22.293Z,1.00
2019-05-10T10:48:53.372Z,1.40
2019-05-10T10:51:26.454Z,1.03
2019-05-10T10:53:58.127Z,0.97
2019-05-10T10:56:27.767Z,1.73
2019-05-10T10:58:58.369Z,1.20
2019-05-10T11:01:45.694Z,0.70
2019-05-10T11:04:03.710Z,1.23
2019-05-10T11:06:32.187Z,0.90
2019-05-10T11:09:02.456Z,1.30
2019-05-10T11:14:45.220Z,1.90
2019-05-10T11:17:12.227Z,2.03
2019-05-10T11:19:42.580Z,1.83
2019-05-10T11:22:12.647Z,1.77
2019-05-10T11:24:42.736Z,1.47
2019-05-10T11:27:17.128Z,0.80
2019-05-10T11:29:45.526Z,1.57
2019-05-10T11:32:17.045Z,1.20
2019-05-10T11:34:50.942Z,1.70
2019-05-10T11:37:31.044Z,1.90
2019-05-10T11:39:54.573Z,1.10
2019-05-10T11:42:24.921Z,1.30
2019-05-10T11:44:55.191Z,1.40
2019-05-10T11:47:27.198Z,0.60
2019-05-10T11:49:57.235Z,1.30
2019-05-10T11:52:29.186Z,1.00
2019-05-10T11:55:01.198Z,0.80
2019-05-10T11:57:32.882Z,1.07
2019-05-10T12:00:03.007Z,1.23
2019-05-10T12:02:38.783Z,1.40
2019-05-10T12:07:43.424Z,0.57
2019-05-10T12:10:20.021Z,1.53
2019-05-10T12:13:00.559Z,1.33
2019-05-10T12:15:15.332Z,0.97
2019-05-10T12:17:54.074Z,1.63
2019-05-10T12:20:26.899Z,0.80
2019-05-10T12:22:51.981Z,0.87
2019-05-10T12:25:42.765Z,1.43
2019-05-10T12:25:59.930Z,0.77
2019-05-10T12:27:54.231Z,1.40
2019-05-10T12:30:24.359Z,1.77
2019-05-10T12:32:56.565Z,0.50
2019-05-10T12:35:35.620Z,0.90
2019-05-10T12:38:01.653Z,1.10
2019-05-10T12:40:31.520Z,0.87
2019-05-10T12:43:01.933Z,1.37
2019-05-10T12:45:31.798Z,1.57
2019-05-10T12:48:01.851Z,1.50
2019-05-10T12:50:31.943Z,0.70
2019-05-10T12:53:08.363Z,1.37
2019-05-10T12:55:33.543Z,1.03
2019-05-10T12:58:03.926Z,1.10
2019-05-10T13:00:36.180Z,1.30
2019-05-10T13:03:12.866Z,1.23
2019-05-10T13:05:51.410Z,0.63
2019-05-10T13:08:10.404Z,1.17
2019-05-10T13:10:43.253Z,1.20
2019-05-10T13:13:17.522Z,0.77
2019-05-10T13:15:48.914Z,0.90
2019-05-10T13:21:07.583Z,0.90
2019-05-10T13:23:35.997Z,1.07
2019-05-10T13:26:06.189Z,1.40
2019-05-10T13:28:36.319Z,1.13
2019-05-10T13:31:09.728Z,0.97
2019-05-10T13:33:41.793Z,0.80
2019-05-10T13:36:12.054Z,0.60
2019-05-10T13:38:43.991Z,1.50
2019-05-10T13:41:18.019Z,1.13
2019-05-10T13:43:47.824Z,1.23
2019-05-10T13:46:18.292Z,1.40
2019-05-10T13:48:48.575Z,1.67
2019-05-10T13:51:18.695Z,1.30
2019-05-10T13:53:53.742Z,0.90
2019-05-10T13:56:21.241Z,1.63
2019-05-10T13:58:52.730Z,1.17
2019-05-10T14:01:22.756Z,2.03
2019-05-10T14:04:00.086Z,1.03
2019-05-10T14:06:25.210Z,0.93
2019-05-10T14:08:55.725Z,1.17
2019-05-10T14:11:25.800Z,1.43
2019-05-10T14:13:55.905Z,1.50
2019-05-10T14:16:25.784Z,1.27
2019-05-10T14:18:56.101Z,1.10
2019-05-10T14:21:26.205Z,1.37
2019-05-10T14:24:01.809Z,1.30
2019-05-10T14:26:32.798Z,1.80
2019-05-10T14:29:03.149Z,1.03
2019-05-10T14:31:33.420Z,0.87
2019-05-10T14:34:19.528Z,1.10
2019-05-10T14:36:40.923Z,1.20
2019-05-10T14:39:09.069Z,1.83
2019-05-10T14:41:40.061Z,1.40
2019-05-10T14:44:10.997Z,1.17
2019-05-10T14:46:41.358Z,1.60
2019-05-10T14:49:11.927Z,1.07
2019-05-10T14:51:57.746Z,1.40
2019-05-10T14:54:13.833Z,1.00
2019-05-10T14:56:44.079Z,1.37
2019-05-10T14:59:22.514Z,1.33
2019-05-10T15:01:53.225Z,1.70
2019-05-10T15:04:43.755Z,1.83
2019-05-10T15:06:55.123Z,1.57
2019-05-10T15:09:25.479Z,2.97
2019-05-10T15:11:56.125Z,1.60
2019-05-10T15:14:26.566Z,2.27
2019-05-10T15:16:56.607Z,1.60
2019-05-10T15:19:30.972Z,1.20
2019-05-10T15:21:59.110Z,1.87
2019-05-10T15:24:28.909Z,1.60
2019-05-10T15:26:59.509Z,1.50
2019-05-10T15:29:36.571Z,1.50
2019-05-10T15:32:06.748Z,1.10
2019-05-10T15:34:37.635Z,1.70
2019-05-10T15:37:09.280Z,1.83
2019-05-10T15:39:39.770Z,2.03
2019-05-10T15:42:10.580Z,1.60
2019-05-10T15:44:40.849Z,1.87
2019-05-10T15:47:14.706Z,1.40
2019-05-10T15:49:43.659Z,2.10
2019-05-10T15:52:17.948Z,1.27
2019-05-10T15:54:47.204Z,1.50
2019-05-10T15:57:20.176Z,1.50
2019-05-10T15:59:56.280Z,1.57
2019-05-10T16:02:22.813Z,1.90
2019-05-10T16:04:59.374Z,2.43
2019-05-10T16:07:29.526Z,1.90
2019-05-10T16:10:01.131Z,1.80
2019-05-10T16:12:31.021Z,1.70
2019-05-10T16:15:01.460Z,1.70
2019-05-10T16:17:31.523Z,1.77
2019-05-10T16:20:01.873Z,1.87
2019-05-10T16:22:32.644Z,1.60
2019-05-10T16:25:03.133Z,1.73
2019-05-10T16:27:34.075Z,1.67
2019-05-10T16:30:05.718Z,1.67
2019-05-10T16:32:36.378Z,1.73
2019-05-10T16:35:12.826Z,2.87
2019-05-10T16:37:39.585Z,1.47
2019-05-10T16:40:10.450Z,1.80
2019-05-10T16:42:41.956Z,2.07
2019-05-10T16:45:13.460Z,2.20
2019-05-10T16:47:45.834Z,1.37
2019-05-10T16:50:17.044Z,1.77
2019-05-10T16:52:52.426Z,1.60
2019-05-10T16:55:29.440Z,2.00
2019-05-10T16:57:59.506Z,1.70
2019-05-10T17:00:30.332Z,1.57
2019-05-10T17:03:01.094Z,1.77
2019-05-10T17:05:31.530Z,1.73
2019-05-10T17:08:01.525Z,1.97
2019-05-10T17:10:33.369Z,1.27
2019-05-10T17:13:06.538Z,1.67
2019-05-10T17:15:39.747Z,1.87
2019-05-10T17:18:17.574Z,1.53
2019-05-10T17:20:45.502Z,1.80
2019-05-10T17:23:16.002Z,1.97
2019-05-10T17:25:46.532Z,1.57
2019-05-10T17:28:16.972Z,1.60
2019-05-10T17:30:46.965Z,2.17
2019-05-10T17:33:18.674Z,1.90
2019-05-10T17:35:48.966Z,2.00
2019-05-10T17:38:19.695Z,2.17
2019-05-10T17:40:50.813Z,1.60
2019-05-10T17:43:22.799Z,1.90
2019-05-10T17:45:53.409Z,1.60
2019-05-10T17:48:24.773Z,1.63
2019-05-10T17:50:54.904Z,2.33
2019-05-10T17:53:26.343Z,1.43
2019-05-10T17:56:02.357Z,1.40
2019-05-10T17:58:33.957Z,1.40
2019-05-10T18:01:03.215Z,1.77
2019-05-10T18:03:34.191Z,1.90
2019-05-10T18:06:04.827Z,1.00
2019-05-10T18:08:35.738Z,1.57
2019-05-10T18:11:08.900Z,1.50
2019-05-10T18:13:40.966Z,1.80
2019-05-10T18:16:12.487Z,1.83
2019-05-10T18:18:46.716Z,1.40
2019-05-10T18:21:21.586Z,1.40
2019-05-10T18:23:58.282Z,1.70
2019-05-10T18:26:28.387Z,1.73
2019-05-10T18:28:59.141Z,1.43
2019-05-10T18:31:37.557Z,1.97
2019-05-10T18:34:07.366Z,1.90
2019-05-10T18:36:51.090Z,1.40
2019-05-10T18:39:15.367Z,2.50
2019-05-10T18:41:49.482Z,1.43
2019-05-10T18:44:19.571Z,2.17
2019-05-10T18:46:50.020Z,1.30
2019-05-10T18:49:21.712Z,1.70
2019-05-10T18:51:58.176Z,1.90
2019-05-10T18:54:25.538Z,1.63
2019-05-10T18:56:56.258Z,1.53
2019-05-10T18:59:26.422Z,1.70
2019-05-10T19:01:58.217Z,1.30
2019-05-10T19:04:29.580Z,1.37
2019-05-10T19:07:09.274Z,1.37
2019-05-10T19:09:31.464Z,1.90
2019-05-10T19:12:02.328Z,1.20
2019-05-10T19:14:35.716Z,1.60
2019-05-10T19:17:09.314Z,1.07
2019-05-10T19:19:41.964Z,1.37
2019-05-10T19:22:10.746Z,2.07
2019-05-10T19:24:40.799Z,1.60
2019-05-10T19:27:10.984Z,1.63
2019-05-10T19:29:45.581Z,1.27
2019-05-10T19:32:18.218Z,1.40
2019-05-10T19:34:57.107Z,1.20
2019-05-10T19:37:30.067Z,1.60
2019-05-10T19:39:53.764Z,1.60
2019-05-10T19:42:26.020Z,1.17
2019-05-10T19:44:57.010Z,1.07
2019-05-10T19:47:27.619Z,1.50
2019-05-10T19:49:58.193Z,1.07
2019-05-10T19:52:28.301Z,1.23
2019-05-10T19:54:59.680Z,1.43
2019-05-10T19:57:29.571Z,1.40
2019-05-10T19:59:59.749Z,1.33
2019-05-10T20:02:30.686Z,1.43
2019-05-10T20:05:01.417Z,1.50
2019-05-10T20:07:44.689Z,1.10
2019-05-10T20:10:02.997Z,1.30
2019-05-10T20:12:33.493Z,1.57
2019-05-10T20:15:04.097Z,1.50
2019-05-10T20:17:39.308Z,1.33
2019-05-10T20:20:09.370Z,1.00
2019-05-10T20:22:41.019Z,1.63
2019-05-10T20:25:11.450Z,1.60
2019-05-10T20:27:41.980Z,1.30
2019-05-10T20:30:13.618Z,1.47
2019-05-10T20:32:44.509Z,1.40
2019-05-10T20:35:14.985Z,1.37
2019-05-10T20:38:00.353Z,1.60
2019-05-10T20:40:18.322Z,1.40
2019-05-10T20:42:48.817Z,1.57
2019-05-10T20:45:19.559Z,1.90
2019-05-10T20:47:49.833Z,1.23
2019-05-10T20:50:21.582Z,1.27
2019-05-10T20:52:53.315Z,1.53
2019-05-10T20:55:24.517Z,1.57
2019-05-10T20:57:55.619Z,1.80
2019-05-10T21:00:26.931Z,1.60
2019-05-10T21:02:57.278Z,1.80
2019-05-10T21:05:29.462Z,1.50
2019-05-10T21:08:00.057Z,1.40
2019-05-10T21:10:31.145Z,1.33
2019-05-10T21:13:02.140Z,1.67
2019-05-10T21:15:32.455Z,1.83
2019-05-10T21:18:03.115Z,1.70
2019-05-10T21:20:34.136Z,1.73
2019-05-10T21:23:03.748Z,1.90
2019-05-10T21:25:33.711Z,1.73
2019-05-10T21:28:03.204Z,2.20
2019-05-10T21:30:33.854Z,2.10
2019-05-10T21:33:03.968Z,2.63
2019-05-10T21:35:33.525Z,2.10
2019-05-10T21:38:03.544Z,2.00
2019-05-10T21:40:33.670Z,2.20
2019-05-10T21:43:03.998Z,2.57
2019-05-10T21:45:34.039Z,2.00
2019-05-10T21:48:04.077Z,1.90
2019-05-10T21:50:34.509Z,1.97
2019-05-10T21:53:04.731Z,2.20
2019-05-10T21:55:35.911Z,1.50
2019-05-10T21:58:05.609Z,2.00
2019-05-10T22:00:41.379Z,1.97
2019-05-10T22:03:12.177Z,1.73
2019-05-10T22:05:42.076Z,1.73
2019-05-10T22:08:12.297Z,1.53
2019-05-10T22:10:42.756Z,2.10
2019-05-10T22:13:13.612Z,1.93
2019-05-10T22:15:43.851Z,1.80
2019-05-10T22:18:13.979Z,2.00
2019-05-10T22:20:43.880Z,1.77
2019-05-10T22:23:15.531Z,1.70
2019-05-10T22:25:45.975Z,1.77
2019-05-10T22:28:16.509Z,1.80
2019-05-10T22:30:46.279Z,1.93
2019-05-10T22:33:16.145Z,1.90
2019-05-10T22:35:47.306Z,1.80
2019-05-10T22:38:17.300Z,1.67
2019-05-10T22:40:47.385Z,1.43
2019-05-10T22:43:17.841Z,1.60
2019-05-10T22:45:48.211Z,1.80
2019-05-10T22:48:18.996Z,1.60
2019-05-10T22:50:50.804Z,1.70
2019-05-10T22:53:20.943Z,1.70
2019-05-10T22:55:50.928Z,1.50
2019-05-10T22:58:21.318Z,1.33
2019-05-10T23:00:51.838Z,1.70
2019-05-10T23:03:26.047Z,1.67
2019-05-10T23:05:56.668Z,2.00
2019-05-10T23:08:26.584Z,1.73
2019-05-10T23:10:57.654Z,1.63
2019-05-10T23:13:31.584Z,2.13
2019-05-10T23:16:01.396Z,1.60
2019-05-10T23:18:36.698Z,2.47
2019-05-10T23:21:06.905Z,1.97
2019-05-10T23:23:36.631Z,1.80
2019-05-10T23:26:06.746Z,1.80
2019-05-10T23:28:37.249Z,1.47
2019-05-10T23:31:07.301Z,1.40
2019-05-10T23:33:58.788Z,1.60
2019-05-10T23:36:29.000Z,1.40
2019-05-10T23:38:59.019Z,1.60
2019-05-10T23:41:29.277Z,1.30
2019-05-10T23:44:09.497Z,1.50
2019-05-10T23:46:44.296Z,1.53
2019-05-10T23:49:17.575Z,1.77
2019-05-10T23:51:48.042Z,1.67
2019-05-10T23:54:18.121Z,1.60
2019-05-10T23:56:48.659Z,1.60
2019-05-10T23:59:18.630Z,1.70
